createdAt,value
2017-12-05T00:00:46.621Z,1024.50
2017-12-05T00:01:47.227Z,1024.49
2017-12-05T00:02:47.833Z,1024.49
2017-12-05T00:03:48.442Z,1024.46
2017-12-05T00:04:49.054Z,1024.46
2017-12-05T00:05:49.649Z,1024.48
2017-12-05T00:06:50.257Z,1024.49
2017-12-05T00:07:50.863Z,1024.49
2017-12-05T00:08:51.465Z,1024.51
2017-12-05T00:09:52.075Z,1024.49
2017-12-05T00:10:52.671Z,1024.52
2017-12-05T00:11:53.267Z,1024.56
2017-12-05T00:12:53.882Z,1024.58
2017-12-05T00:13:54.494Z,1024.55
2017-12-05T00:14:55.092Z,1024.57
2017-12-05T00:15:55.701Z,1024.53
2017-12-05T00:16:56.311Z,1024.57
2017-12-05T00:17:56.925Z,1024.57
2017-12-05T00:18:57.520Z,1024.55
2017-12-05T00:19:58.132Z,1024.52
2017-12-05T00:20:58.721Z,1024.53
2017-12-05T00:21:59.344Z,1024.52
2017-12-05T00:22:59.926Z,1024.52
2017-12-05T00:24:00.517Z,1024.49
2017-12-05T00:25:01.124Z,1024.49
2017-12-05T00:26:01.728Z,1024.46
2017-12-05T00:27:02.329Z,1024.47
2017-12-05T00:28:02.927Z,1024.43
2017-12-05T00:29:03.536Z,1024.39
2017-12-05T00:30:04.138Z,1024.36
2017-12-05T00:31:04.744Z,1024.37
2017-12-05T00:32:05.341Z,1024.35
2017-12-05T00:33:05.953Z,1024.38
2017-12-05T00:34:06.542Z,1024.32
2017-12-05T00:35:07.147Z,1024.31
2017-12-05T00:36:07.759Z,1024.29
2017-12-05T00:37:08.364Z,1024.32
2017-12-05T00:38:08.969Z,1024.29
2017-12-05T00:39:09.587Z,1024.25
2017-12-05T00:40:10.194Z,1024.26
2017-12-05T00:41:10.797Z,1024.29
2017-12-05T00:42:11.407Z,1024.29
2017-12-05T00:43:12.013Z,1024.31
2017-12-05T00:44:12.617Z,1024.30
2017-12-05T00:45:13.218Z,1024.31
2017-12-05T00:46:13.825Z,1024.29
2017-12-05T00:47:14.412Z,1024.30
2017-12-05T00:48:15.022Z,1024.34
2017-12-05T00:49:15.628Z,1024.31
2017-12-05T00:50:16.231Z,1024.34
2017-12-05T00:51:16.821Z,1024.31
2017-12-05T00:52:17.456Z,1024.36
2017-12-05T00:53:18.018Z,1024.30
2017-12-05T00:54:18.615Z,1024.30
2017-12-05T00:55:19.223Z,1024.27
2017-12-05T00:56:19.839Z,1024.26
2017-12-05T00:57:20.430Z,1024.30
2017-12-05T00:58:21.042Z,1024.28
2017-12-05T00:59:21.646Z,1024.32
2017-12-05T01:00:22.245Z,1024.29
2017-12-05T01:01:22.854Z,1024.24
2017-12-05T01:02:23.459Z,1024.25
2017-12-05T01:03:24.061Z,1024.22
2017-12-05T01:04:24.653Z,1024.24
2017-12-05T01:05:25.252Z,1024.20
2017-12-05T01:06:25.845Z,1024.23
2017-12-05T01:07:26.463Z,1024.23
2017-12-05T01:08:27.068Z,1024.17
2017-12-05T01:09:27.668Z,1024.20
2017-12-05T01:10:28.274Z,1024.25
2017-12-05T01:11:28.864Z,1024.24
2017-12-05T01:12:29.455Z,1024.26
2017-12-05T01:13:30.053Z,1024.26
2017-12-05T01:14:30.653Z,1024.25
2017-12-05T01:15:31.242Z,1024.27
2017-12-05T01:16:31.830Z,1024.28
2017-12-05T01:17:32.437Z,1024.33
2017-12-05T01:18:33.041Z,1024.32
2017-12-05T01:19:33.648Z,1024.34
2017-12-05T01:20:34.257Z,1024.40
2017-12-05T01:21:34.844Z,1024.33
2017-12-05T01:22:35.448Z,1024.37
2017-12-05T01:23:36.035Z,1024.39
2017-12-05T01:24:36.629Z,1024.40
2017-12-05T01:25:37.227Z,1024.40
2017-12-05T01:26:37.827Z,1024.41
2017-12-05T01:27:38.434Z,1024.39
2017-12-05T01:28:39.037Z,1024.39
2017-12-05T01:29:39.640Z,1024.36
2017-12-05T01:30:40.236Z,1024.41
2017-12-05T01:31:40.842Z,1024.35
2017-12-05T01:32:41.439Z,1024.40
2017-12-05T01:33:42.028Z,1024.36
2017-12-05T01:34:42.616Z,1024.35
2017-12-05T01:35:43.215Z,1024.39
2017-12-05T01:36:43.864Z,1024.36
2017-12-05T01:37:44.399Z,1024.41
2017-12-05T01:38:45.006Z,1024.37
2017-12-05T01:39:45.620Z,1024.38
2017-12-05T01:40:46.459Z,1024.34
2017-12-05T01:41:47.051Z,1024.35
2017-12-05T01:42:47.640Z,1024.37
2017-12-05T01:43:48.243Z,1024.36
2017-12-05T01:44:48.853Z,1024.32
2017-12-05T01:45:49.460Z,1024.29
2017-12-05T01:46:50.063Z,1024.35
2017-12-05T01:47:50.675Z,1024.30
2017-12-05T01:48:51.283Z,1024.35
2017-12-05T01:49:51.872Z,1024.33
2017-12-05T01:50:52.477Z,1024.27
2017-12-05T01:51:53.078Z,1024.30
2017-12-05T01:52:53.675Z,1024.26
2017-12-05T01:53:54.284Z,1024.26
2017-12-05T01:54:54.891Z,1024.25
2017-12-05T01:55:55.495Z,1024.25
2017-12-05T01:56:56.098Z,1024.24
2017-12-05T01:57:56.700Z,1024.29
2017-12-05T01:58:57.301Z,1024.26
2017-12-05T01:59:57.899Z,1024.29
2017-12-05T02:00:58.502Z,1024.41
2017-12-05T02:01:59.112Z,1024.38
2017-12-05T02:02:59.713Z,1024.40
2017-12-05T02:04:00.315Z,1024.41
2017-12-05T02:05:00.914Z,1024.45
2017-12-05T02:06:01.517Z,1024.49
2017-12-05T02:07:02.104Z,1024.51
2017-12-05T02:08:02.704Z,1024.51
2017-12-05T02:09:03.304Z,1024.44
2017-12-05T02:10:03.893Z,1024.49
2017-12-05T02:11:04.500Z,1024.49
2017-12-05T02:12:05.093Z,1024.46
2017-12-05T02:13:05.690Z,1024.47
2017-12-05T02:14:06.280Z,1024.51
2017-12-05T02:15:06.880Z,1024.49
2017-12-05T02:16:07.467Z,1024.47
2017-12-05T02:17:08.059Z,1024.49
2017-12-05T02:18:08.664Z,1024.51
2017-12-05T02:19:09.274Z,1024.52
2017-12-05T02:20:09.875Z,1024.55
2017-12-05T02:21:10.491Z,1024.53
2017-12-05T02:22:11.081Z,1024.54
2017-12-05T02:23:11.686Z,1024.53
2017-12-05T02:24:12.280Z,1024.52
2017-12-05T02:25:12.886Z,1024.53
2017-12-05T02:26:13.484Z,1024.53
2017-12-05T02:27:14.089Z,1024.52
2017-12-05T02:28:14.704Z,1024.52
2017-12-05T02:29:15.308Z,1024.51
2017-12-05T02:30:15.907Z,1024.48
2017-12-05T02:31:16.506Z,1024.42
2017-12-05T02:32:17.095Z,1024.37
2017-12-05T02:33:17.684Z,1024.30
2017-12-05T02:34:18.275Z,1024.22
2017-12-05T02:35:18.866Z,1024.20
2017-12-05T02:36:19.475Z,1024.16
2017-12-05T02:37:20.088Z,1024.19
2017-12-05T02:38:20.698Z,1024.23
2017-12-05T02:39:21.306Z,1024.28
2017-12-05T02:40:21.902Z,1024.30
2017-12-05T02:41:22.491Z,1024.28
2017-12-05T02:42:23.089Z,1024.26
2017-12-05T02:43:23.699Z,1024.29
2017-12-05T02:44:24.306Z,1024.27
2017-12-05T02:45:24.894Z,1024.24
2017-12-05T02:46:25.486Z,1024.29
2017-12-05T02:47:26.080Z,1024.26
2017-12-05T02:48:26.669Z,1024.19
2017-12-05T02:49:27.267Z,1024.21
2017-12-05T02:50:27.863Z,1024.21
2017-12-05T02:51:28.459Z,1024.17
2017-12-05T02:52:29.054Z,1024.14
2017-12-05T02:53:29.664Z,1024.14
2017-12-05T02:54:30.271Z,1024.11
2017-12-05T02:55:30.876Z,1024.11
2017-12-05T02:56:31.495Z,1024.14
2017-12-05T02:57:32.083Z,1024.11
2017-12-05T02:58:32.687Z,1024.13
2017-12-05T02:59:33.292Z,1024.09
2017-12-05T03:00:33.895Z,1024.03
2017-12-05T03:01:34.482Z,1024.03
2017-12-05T03:02:35.088Z,1024.00
2017-12-05T03:03:35.683Z,1024.01
2017-12-05T03:04:36.297Z,1023.96
2017-12-05T03:05:36.899Z,1023.98
2017-12-05T03:06:37.503Z,1023.97
2017-12-05T03:07:38.093Z,1024.00
2017-12-05T03:08:38.684Z,1024.00
2017-12-05T03:09:39.288Z,1024.01
2017-12-05T03:10:39.897Z,1024.03
2017-12-05T03:11:40.510Z,1023.98
2017-12-05T03:12:41.121Z,1024.03
2017-12-05T03:13:41.782Z,1023.98
2017-12-05T03:14:42.332Z,1024.03
2017-12-05T03:15:42.923Z,1023.94
2017-12-05T03:16:43.525Z,1023.94
2017-12-05T03:17:44.116Z,1023.94
2017-12-05T03:18:44.722Z,1023.94
2017-12-05T03:19:45.329Z,1023.96
2017-12-05T03:20:45.936Z,1023.94
2017-12-05T03:21:46.532Z,1023.90
2017-12-05T03:22:47.130Z,1023.90
2017-12-05T03:23:47.742Z,1023.87
2017-12-05T03:24:48.351Z,1023.86
2017-12-05T03:25:48.959Z,1023.93
2017-12-05T03:26:49.565Z,1023.89
2017-12-05T03:27:50.169Z,1023.95
2017-12-05T03:28:50.770Z,1023.94
2017-12-05T03:29:51.362Z,1023.93
2017-12-05T03:30:51.964Z,1023.98
2017-12-05T03:31:52.552Z,1023.90
2017-12-05T03:32:53.140Z,1023.90
2017-12-05T03:33:53.739Z,1023.97
2017-12-05T03:34:54.339Z,1023.90
2017-12-05T03:35:54.935Z,1023.94
2017-12-05T03:36:55.524Z,1023.98
2017-12-05T03:37:56.122Z,1023.94
2017-12-05T03:38:56.733Z,1023.99
2017-12-05T03:39:57.336Z,1023.98
2017-12-05T03:40:57.929Z,1023.96
2017-12-05T03:41:58.527Z,1023.94
2017-12-05T03:42:59.121Z,1023.98
2017-12-05T03:43:59.726Z,1024.01
2017-12-05T03:45:00.331Z,1024.03
2017-12-05T03:46:00.935Z,1024.03
2017-12-05T03:47:01.529Z,1024.05
2017-12-05T03:48:02.131Z,1024.06
2017-12-05T03:49:02.737Z,1024.06
2017-12-05T03:50:03.349Z,1024.07
2017-12-05T03:51:03.948Z,1024.09
2017-12-05T03:52:04.542Z,1024.04
2017-12-05T03:53:05.141Z,1024.07
2017-12-05T03:54:05.738Z,1024.05
2017-12-05T03:55:06.349Z,1024.06
2017-12-05T03:56:06.957Z,1024.08
2017-12-05T03:57:07.555Z,1024.06
2017-12-05T03:58:08.166Z,1024.11
2017-12-05T03:59:08.780Z,1024.11
2017-12-05T04:00:09.372Z,1024.08
2017-12-05T04:01:09.974Z,1024.01
2017-12-05T04:02:10.572Z,1024.03
2017-12-05T04:03:11.161Z,1024.02
2017-12-05T04:04:11.772Z,1023.98
2017-12-05T04:05:12.369Z,1024.01
2017-12-05T04:06:12.957Z,1023.99
2017-12-05T04:07:13.555Z,1023.95
2017-12-05T04:08:14.171Z,1023.97
2017-12-05T04:09:14.757Z,1023.95
2017-12-05T04:10:15.364Z,1023.95
2017-12-05T04:11:15.979Z,1023.91
2017-12-05T04:12:16.595Z,1023.88
2017-12-05T04:13:17.198Z,1023.88
2017-12-05T04:14:17.806Z,1023.88
2017-12-05T04:15:18.416Z,1023.89
2017-12-05T04:16:19.007Z,1023.90
2017-12-05T04:17:19.601Z,1023.89
2017-12-05T04:18:20.213Z,1023.94
2017-12-05T04:19:20.816Z,1023.97
2017-12-05T04:20:21.413Z,1023.95
2017-12-05T04:21:22.020Z,1024.01
2017-12-05T04:22:22.625Z,1024.02
2017-12-05T04:23:23.237Z,1024.03
2017-12-05T04:24:23.851Z,1024.00
2017-12-05T04:25:24.446Z,1023.92
2017-12-05T04:26:25.038Z,1023.97
2017-12-05T04:27:25.648Z,1023.96
2017-12-05T04:28:26.260Z,1023.96
2017-12-05T04:29:26.858Z,1024.00
2017-12-05T04:30:27.460Z,1023.96
2017-12-05T04:31:28.063Z,1023.93
2017-12-05T04:32:28.660Z,1023.94
2017-12-05T04:33:29.271Z,1023.95
2017-12-05T04:34:29.862Z,1023.96
2017-12-05T04:35:30.458Z,1023.93
2017-12-05T04:36:31.053Z,1023.91
2017-12-05T04:37:31.653Z,1023.93
2017-12-05T04:38:32.262Z,1023.92
2017-12-05T04:39:32.864Z,1023.94
2017-12-05T04:40:33.460Z,1023.94
2017-12-05T04:41:34.072Z,1023.90
2017-12-05T04:42:34.681Z,1023.90
2017-12-05T04:43:35.285Z,1023.86
2017-12-05T04:44:35.911Z,1023.88
2017-12-05T04:45:36.509Z,1023.91
2017-12-05T04:46:37.120Z,1023.92
2017-12-05T04:47:37.716Z,1023.94
2017-12-05T04:48:38.320Z,1023.95
2017-12-05T04:49:38.913Z,1023.93
2017-12-05T04:50:39.510Z,1023.90
2017-12-05T04:51:40.114Z,1023.94
2017-12-05T04:52:40.704Z,1023.91
2017-12-05T04:53:41.308Z,1023.92
2017-12-05T04:54:41.924Z,1023.93
2017-12-05T04:55:42.510Z,1023.92
2017-12-05T04:56:43.113Z,1023.89
2017-12-05T04:57:43.725Z,1023.92
2017-12-05T04:58:44.338Z,1023.94
2017-12-05T04:59:44.949Z,1023.93
2017-12-05T05:00:45.549Z,1023.93
2017-12-05T05:01:46.149Z,1023.94
2017-12-05T05:02:46.756Z,1023.94
2017-12-05T05:03:47.370Z,1023.96
2017-12-05T05:04:47.977Z,1023.94
2017-12-05T05:05:48.567Z,1023.89
2017-12-05T05:06:49.161Z,1023.89
2017-12-05T05:07:49.760Z,1023.91
2017-12-05T05:08:50.365Z,1023.90
2017-12-05T05:09:50.963Z,1023.93
2017-12-05T05:10:51.563Z,1023.88
2017-12-05T05:11:52.174Z,1023.93
2017-12-05T05:12:52.779Z,1023.93
2017-12-05T05:13:53.384Z,1023.89
2017-12-05T05:14:53.996Z,1023.94
2017-12-05T05:15:54.586Z,1023.97
2017-12-05T05:16:55.177Z,1023.90
2017-12-05T05:17:55.782Z,1023.95
2017-12-05T05:18:56.380Z,1023.93
2017-12-05T05:19:56.981Z,1023.97
2017-12-05T05:20:57.574Z,1023.95
2017-12-05T05:21:58.185Z,1023.93
2017-12-05T05:22:58.791Z,1023.95
2017-12-05T05:23:59.399Z,1024.01
2017-12-05T05:24:59.992Z,1023.99
2017-12-05T05:26:00.595Z,1024.01
2017-12-05T05:27:01.187Z,1023.98
2017-12-05T05:28:01.780Z,1023.98
2017-12-05T05:29:02.388Z,1024.00
2017-12-05T05:30:02.974Z,1024.04
2017-12-05T05:31:03.583Z,1024.08
2017-12-05T05:32:04.194Z,1024.04
2017-12-05T05:33:04.791Z,1024.06
2017-12-05T05:34:05.391Z,1024.05
2017-12-05T05:35:05.998Z,1024.07
2017-12-05T05:36:06.603Z,1024.01
2017-12-05T05:37:07.195Z,1024.02
2017-12-05T05:38:07.797Z,1024.05
2017-12-05T05:39:08.390Z,1024.08
2017-12-05T05:40:08.993Z,1024.07
2017-12-05T05:41:09.587Z,1024.09
2017-12-05T05:42:10.189Z,1024.13
2017-12-05T05:43:10.781Z,1024.13
2017-12-05T05:44:11.381Z,1024.17
2017-12-05T05:45:11.980Z,1024.18
2017-12-05T05:46:12.590Z,1024.16
2017-12-05T05:47:13.198Z,1024.24
2017-12-05T05:48:13.806Z,1024.19
2017-12-05T05:49:14.405Z,1024.21
2017-12-05T05:50:15.006Z,1024.17
2017-12-05T05:51:15.606Z,1024.21
2017-12-05T05:52:16.213Z,1024.20
2017-12-05T05:53:16.799Z,1024.14
2017-12-05T05:54:17.408Z,1024.25
2017-12-05T05:55:18.243Z,1024.19
2017-12-05T05:56:18.846Z,1024.19
2017-12-05T05:57:19.445Z,1024.21
2017-12-05T05:58:20.045Z,1024.19
2017-12-05T05:59:20.633Z,1024.27
2017-12-05T06:00:21.244Z,1024.28
2017-12-05T06:01:21.846Z,1024.31
2017-12-05T06:02:22.449Z,1024.27
2017-12-05T06:03:23.050Z,1024.29
2017-12-05T06:04:23.660Z,1024.38
2017-12-05T06:05:24.276Z,1024.35
2017-12-05T06:06:24.880Z,1024.33
2017-12-05T06:07:25.478Z,1024.31
2017-12-05T06:08:26.075Z,1024.35
2017-12-05T06:09:26.677Z,1024.36
2017-12-05T06:10:27.290Z,1024.34
2017-12-05T06:11:27.901Z,1024.32
2017-12-05T06:12:28.498Z,1024.36
2017-12-05T06:13:29.102Z,1024.37
2017-12-05T06:14:29.698Z,1024.37
2017-12-05T06:15:30.309Z,1024.36
2017-12-05T06:16:30.911Z,1024.40
2017-12-05T06:17:31.551Z,1024.37
2017-12-05T06:18:32.156Z,1024.33
2017-12-05T06:19:32.764Z,1024.36
2017-12-05T06:20:33.366Z,1024.41
2017-12-05T06:21:33.978Z,1024.37
2017-12-05T06:22:34.558Z,1024.35
2017-12-05T06:23:35.150Z,1024.35
2017-12-05T06:24:35.753Z,1024.40
2017-12-05T06:25:36.334Z,1024.45
2017-12-05T06:26:36.938Z,1024.44
2017-12-05T06:27:37.550Z,1024.44
2017-12-05T06:28:38.155Z,1024.45
2017-12-05T06:29:38.761Z,1024.43
2017-12-05T06:30:39.408Z,1024.42
2017-12-05T06:31:39.994Z,1024.44
2017-12-05T06:32:40.602Z,1024.39
2017-12-05T06:33:41.200Z,1024.41
2017-12-05T06:34:41.793Z,1024.45
2017-12-05T06:35:42.381Z,1024.50
2017-12-05T06:36:42.972Z,1024.50
2017-12-05T06:37:43.560Z,1024.52
2017-12-05T06:38:44.165Z,1024.58
2017-12-05T06:39:44.770Z,1024.54
2017-12-05T06:40:45.384Z,1024.60
2017-12-05T06:41:45.971Z,1024.63
2017-12-05T06:42:46.560Z,1024.62
2017-12-05T06:43:47.166Z,1024.62
2017-12-05T06:44:47.754Z,1024.57
2017-12-05T06:45:48.350Z,1024.62
2017-12-05T06:46:48.939Z,1024.59
2017-12-05T06:47:49.540Z,1024.61
2017-12-05T06:48:50.132Z,1024.58
2017-12-05T06:49:50.740Z,1024.58
2017-12-05T06:50:51.327Z,1024.58
2017-12-05T06:51:51.933Z,1024.57
2017-12-05T06:52:52.544Z,1024.53
2017-12-05T06:53:53.149Z,1024.58
2017-12-05T06:54:53.751Z,1024.52
2017-12-05T06:55:54.394Z,1024.48
2017-12-05T06:56:54.963Z,1024.47
2017-12-05T06:57:55.571Z,1024.50
2017-12-05T06:58:56.164Z,1024.39
2017-12-05T06:59:56.778Z,1024.44
2017-12-05T07:00:57.367Z,1024.50
2017-12-05T07:01:57.970Z,1024.48
2017-12-05T07:02:58.566Z,1024.48
2017-12-05T07:03:59.172Z,1024.50
2017-12-05T07:04:59.780Z,1024.47
2017-12-05T07:06:00.376Z,1024.54
2017-12-05T07:07:00.971Z,1024.54
2017-12-05T07:08:01.564Z,1024.46
2017-12-05T07:09:02.172Z,1024.55
2017-12-05T07:10:02.764Z,1024.54
2017-12-05T07:11:03.361Z,1024.49
2017-12-05T07:12:03.960Z,1024.56
2017-12-05T07:13:04.562Z,1024.50
2017-12-05T07:14:05.160Z,1024.57
2017-12-05T07:15:05.754Z,1024.56
2017-12-05T07:16:06.355Z,1024.63
2017-12-05T07:17:06.967Z,1024.69
2017-12-05T07:18:07.581Z,1024.71
2017-12-05T07:19:08.180Z,1024.73
2017-12-05T07:20:08.786Z,1024.72
2017-12-05T07:21:09.394Z,1024.76
2017-12-05T07:22:10.009Z,1024.76
2017-12-05T07:23:10.603Z,1024.78
2017-12-05T07:24:11.212Z,1024.79
2017-12-05T07:25:11.828Z,1024.77
2017-12-05T07:26:12.430Z,1024.74
2017-12-05T07:27:13.026Z,1024.77
2017-12-05T07:28:13.645Z,1024.75
2017-12-05T07:29:14.256Z,1024.75
2017-12-05T07:30:14.847Z,1024.77
2017-12-05T07:31:15.451Z,1024.74
2017-12-05T07:32:16.065Z,1024.77
2017-12-05T07:33:16.681Z,1024.80
2017-12-05T07:34:17.287Z,1024.83
2017-12-05T07:35:17.891Z,1024.82
2017-12-05T07:36:18.486Z,1024.82
2017-12-05T07:37:19.094Z,1024.81
2017-12-05T07:38:19.701Z,1024.76
2017-12-05T07:39:20.304Z,1024.83
2017-12-05T07:40:20.896Z,1024.81
2017-12-05T07:41:21.500Z,1024.80
2017-12-05T07:42:22.097Z,1024.82
2017-12-05T07:43:22.751Z,1024.79
2017-12-05T07:44:23.355Z,1024.83
2017-12-05T07:45:23.961Z,1024.80
2017-12-05T07:46:24.577Z,1024.87
2017-12-05T07:47:25.191Z,1024.88
2017-12-05T07:48:25.791Z,1024.89
2017-12-05T07:49:26.414Z,1024.85
2017-12-05T07:50:27.021Z,1024.90
2017-12-05T07:51:27.616Z,1024.88
2017-12-05T07:52:28.223Z,1024.89
2017-12-05T07:53:28.827Z,1024.90
2017-12-05T07:54:29.429Z,1024.85
2017-12-05T07:55:30.034Z,1024.89
2017-12-05T07:56:30.668Z,1024.87
2017-12-05T07:57:31.250Z,1024.82
2017-12-05T07:58:31.854Z,1024.83
2017-12-05T07:59:32.479Z,1024.84
2017-12-05T08:00:33.111Z,1024.86
2017-12-05T08:01:33.704Z,1024.88
2017-12-05T08:02:34.324Z,1024.84
2017-12-05T08:03:34.938Z,1024.85
2017-12-05T08:04:35.549Z,1024.85
2017-12-05T08:05:36.150Z,1024.83
2017-12-05T08:06:36.769Z,1024.88
2017-12-05T08:07:37.371Z,1024.89
2017-12-05T08:08:38.008Z,1024.87
2017-12-05T08:09:38.618Z,1024.91
2017-12-05T08:10:39.216Z,1024.88
2017-12-05T08:11:39.812Z,1024.88
2017-12-05T08:12:40.417Z,1024.84
2017-12-05T08:13:41.035Z,1024.78
2017-12-05T08:14:41.640Z,1024.81
2017-12-05T08:15:42.247Z,1024.81
2017-12-05T08:16:42.846Z,1024.72
2017-12-05T08:17:43.448Z,1024.75
2017-12-05T08:18:44.042Z,1024.74
2017-12-05T08:19:44.636Z,1024.76
2017-12-05T08:20:45.248Z,1024.73
2017-12-05T08:21:45.858Z,1024.78
2017-12-05T08:22:46.462Z,1024.80
2017-12-05T08:23:47.073Z,1024.85
2017-12-05T08:24:47.683Z,1024.83
2017-12-05T08:25:48.301Z,1024.80
2017-12-05T08:26:48.914Z,1024.87
2017-12-05T08:27:49.522Z,1024.88
2017-12-05T08:28:50.129Z,1024.86
2017-12-05T08:29:50.743Z,1024.86
2017-12-05T08:30:51.356Z,1024.85
2017-12-05T08:31:51.957Z,1024.78
2017-12-05T08:32:52.573Z,1024.86
2017-12-05T08:33:53.177Z,1024.81
2017-12-05T08:34:53.789Z,1024.85
2017-12-05T08:35:54.413Z,1024.80
2017-12-05T08:36:55.017Z,1024.84
2017-12-05T08:37:55.621Z,1024.80
2017-12-05T08:38:56.225Z,1024.80
2017-12-05T08:39:56.832Z,1024.74
2017-12-05T08:40:57.443Z,1024.81
2017-12-05T08:41:58.038Z,1024.79
2017-12-05T08:42:58.646Z,1024.80
2017-12-05T08:43:59.263Z,1024.76
2017-12-05T08:44:59.871Z,1024.82
2017-12-05T08:46:00.484Z,1024.86
2017-12-05T08:47:01.094Z,1024.80
2017-12-05T08:48:01.705Z,1024.78
2017-12-05T08:49:02.323Z,1024.77
2017-12-05T08:50:02.938Z,1024.80
2017-12-05T08:51:03.552Z,1024.81
2017-12-05T08:52:04.152Z,1024.84
2017-12-05T08:53:04.748Z,1024.81
2017-12-05T08:54:05.350Z,1024.81
2017-12-05T08:55:05.957Z,1024.85
2017-12-05T08:56:06.577Z,1024.88
2017-12-05T08:57:07.186Z,1024.89
2017-12-05T08:58:07.854Z,1024.84
2017-12-05T08:59:08.454Z,1024.88
2017-12-05T09:00:09.055Z,1024.91
2017-12-05T09:01:09.654Z,1024.92
2017-12-05T09:02:10.258Z,1024.90
2017-12-05T09:03:10.875Z,1024.86
2017-12-05T09:04:11.477Z,1024.84
2017-12-05T09:05:12.074Z,1024.86
2017-12-05T09:06:12.698Z,1024.90
2017-12-05T09:07:13.315Z,1024.90
2017-12-05T09:08:13.926Z,1024.86
2017-12-05T09:09:14.544Z,1024.87
2017-12-05T09:10:15.153Z,1024.91
2017-12-05T09:11:15.762Z,1024.91
2017-12-05T09:12:16.357Z,1024.92
2017-12-05T09:13:16.976Z,1024.89
2017-12-05T09:14:17.628Z,1024.92
2017-12-05T09:15:18.189Z,1024.93
2017-12-05T09:16:18.789Z,1024.93
2017-12-05T09:17:19.390Z,1024.91
2017-12-05T09:18:19.995Z,1024.90
2017-12-05T09:19:20.641Z,1024.91
2017-12-05T09:20:21.264Z,1024.96
2017-12-05T09:21:21.879Z,1024.95
2017-12-05T09:22:22.496Z,1024.96
2017-12-05T09:23:23.105Z,1024.97
2017-12-05T09:24:23.728Z,1025.00
2017-12-05T09:25:24.331Z,1024.96
2017-12-05T09:26:24.946Z,1025.00
2017-12-05T09:27:25.561Z,1025.00
2017-12-05T09:28:26.182Z,1025.01
2017-12-05T09:29:26.796Z,1025.00
2017-12-05T09:30:27.392Z,1024.99
2017-12-05T09:31:27.994Z,1025.02
2017-12-05T09:32:28.593Z,1025.00
2017-12-05T09:33:29.205Z,1025.03
2017-12-05T09:34:29.814Z,1024.92
2017-12-05T09:35:30.425Z,1024.98
2017-12-05T09:36:31.051Z,1024.95
2017-12-05T09:37:31.644Z,1024.96
2017-12-05T09:38:32.254Z,1024.99
2017-12-05T09:39:32.858Z,1024.97
2017-12-05T09:40:33.460Z,1025.00
2017-12-05T09:41:34.078Z,1025.03
2017-12-05T09:42:34.694Z,1024.99
2017-12-05T09:43:35.298Z,1025.04
2017-12-05T09:44:35.904Z,1025.03
2017-12-05T09:45:36.522Z,1024.98
2017-12-05T09:46:37.259Z,1025.01
2017-12-05T09:47:37.884Z,1024.97
2017-12-05T09:48:38.498Z,1025.00
2017-12-05T09:49:39.112Z,1024.95
2017-12-05T09:50:39.723Z,1025.01
2017-12-05T09:51:40.407Z,1025.01
2017-12-05T09:52:41.005Z,1024.98
2017-12-05T09:53:41.622Z,1025.00
2017-12-05T09:54:42.228Z,1025.00
2017-12-05T09:55:42.861Z,1025.00
2017-12-05T09:56:43.452Z,1024.98
2017-12-05T09:57:44.056Z,1024.96
2017-12-05T09:58:44.673Z,1024.98
2017-12-05T09:59:45.306Z,1024.94
2017-12-05T10:00:45.905Z,1024.98
2017-12-05T10:01:46.500Z,1024.96
2017-12-05T10:02:47.113Z,1024.99
2017-12-05T10:03:47.734Z,1024.98
2017-12-05T10:04:48.338Z,1024.97
2017-12-05T10:05:48.959Z,1024.99
2017-12-05T10:06:49.576Z,1025.02
2017-12-05T10:07:50.192Z,1025.05
2017-12-05T10:08:50.808Z,1025.05
2017-12-05T10:09:51.413Z,1025.03
2017-12-05T10:10:52.023Z,1024.99
2017-12-05T10:11:52.636Z,1025.02
2017-12-05T10:12:53.270Z,1024.96
2017-12-05T10:13:53.853Z,1024.98
2017-12-05T10:14:54.452Z,1024.96
2017-12-05T10:15:55.078Z,1024.96
2017-12-05T10:16:55.695Z,1024.98
2017-12-05T10:17:56.298Z,1024.93
2017-12-05T10:18:56.917Z,1024.90
2017-12-05T10:19:57.534Z,1024.94
2017-12-05T10:20:58.135Z,1024.93
2017-12-05T10:21:58.753Z,1024.92
2017-12-05T10:22:59.352Z,1024.95
2017-12-05T10:23:59.968Z,1024.91
2017-12-05T10:25:00.593Z,1024.93
2017-12-05T10:26:01.179Z,1024.94
2017-12-05T10:27:01.791Z,1024.87
2017-12-05T10:28:02.405Z,1024.88
2017-12-05T10:29:03.000Z,1024.91
2017-12-05T10:30:03.609Z,1024.92
2017-12-05T10:31:04.215Z,1024.91
2017-12-05T10:32:04.828Z,1024.95
2017-12-05T10:33:05.441Z,1024.95
2017-12-05T10:34:06.061Z,1024.98
2017-12-05T10:35:06.679Z,1024.95
2017-12-05T10:36:07.283Z,1024.96
2017-12-05T10:37:07.884Z,1024.99
2017-12-05T10:38:08.498Z,1024.92
2017-12-05T10:39:09.123Z,1024.95
2017-12-05T10:40:09.734Z,1024.91
2017-12-05T10:41:10.341Z,1024.93
2017-12-05T10:42:10.967Z,1024.97
2017-12-05T10:43:11.583Z,1024.98
2017-12-05T10:44:12.252Z,1024.95
2017-12-05T10:45:12.799Z,1024.95
2017-12-05T10:46:13.402Z,1024.94
2017-12-05T10:47:14.018Z,1024.93
2017-12-05T10:48:14.617Z,1024.91
2017-12-05T10:49:15.222Z,1024.94
2017-12-05T10:50:15.829Z,1024.90
2017-12-05T10:51:16.430Z,1024.95
2017-12-05T10:52:17.034Z,1024.96
2017-12-05T10:53:17.655Z,1024.96
2017-12-05T10:54:18.262Z,1024.93
2017-12-05T10:55:18.878Z,1024.97
2017-12-05T10:56:19.517Z,1024.93
2017-12-05T10:57:20.118Z,1024.91
2017-12-05T10:58:20.735Z,1024.94
2017-12-05T10:59:21.338Z,1024.92
2017-12-05T11:00:21.938Z,1024.95
2017-12-05T11:01:22.535Z,1024.95
2017-12-05T11:02:23.141Z,1024.93
2017-12-05T11:03:23.763Z,1024.89
2017-12-05T11:04:24.386Z,1024.90
2017-12-05T11:05:25.009Z,1024.89
2017-12-05T11:06:25.628Z,1024.91
2017-12-05T11:07:26.224Z,1024.93
2017-12-05T11:08:26.830Z,1024.91
2017-12-05T11:09:27.430Z,1024.91
2017-12-05T11:10:28.043Z,1024.84
2017-12-05T11:11:28.648Z,1024.85
2017-12-05T11:12:29.257Z,1024.85
2017-12-05T11:13:29.871Z,1024.85
2017-12-05T11:14:30.490Z,1024.82
2017-12-05T11:15:31.083Z,1024.87
2017-12-05T11:16:31.680Z,1024.85
2017-12-05T11:17:32.506Z,1024.87
2017-12-05T11:18:33.344Z,1024.80
2017-12-05T11:19:33.941Z,1024.79
2017-12-05T11:20:34.565Z,1024.82
2017-12-05T11:21:35.168Z,1024.78
2017-12-05T11:22:35.783Z,1024.81
2017-12-05T11:23:36.391Z,1024.80
2017-12-05T11:24:37.017Z,1024.80
2017-12-05T11:25:37.638Z,1024.79
2017-12-05T11:26:38.259Z,1024.82
2017-12-05T11:27:38.856Z,1024.79
2017-12-05T11:28:39.454Z,1024.82
2017-12-05T11:29:40.066Z,1024.77
2017-12-05T11:30:40.693Z,1024.74
2017-12-05T11:31:41.309Z,1024.80
2017-12-05T11:32:41.905Z,1024.74
2017-12-05T11:33:42.505Z,1024.75
2017-12-05T11:34:43.107Z,1024.74
2017-12-05T11:35:43.726Z,1024.73
2017-12-05T11:36:44.335Z,1024.70
2017-12-05T11:37:44.929Z,1024.73
2017-12-05T11:38:45.546Z,1024.69
2017-12-05T11:39:46.173Z,1024.70
2017-12-05T11:40:46.791Z,1024.68
2017-12-05T11:41:47.387Z,1024.71
2017-12-05T11:42:47.984Z,1024.72
2017-12-05T11:43:48.604Z,1024.71
2017-12-05T11:44:49.237Z,1024.70
2017-12-05T11:45:49.863Z,1024.71
2017-12-05T11:46:50.474Z,1024.70
2017-12-05T11:47:51.085Z,1024.70
2017-12-05T11:48:51.697Z,1024.71
2017-12-05T11:49:52.311Z,1024.67
2017-12-05T11:50:52.914Z,1024.72
2017-12-05T11:51:53.528Z,1024.68
2017-12-05T11:52:54.143Z,1024.68
2017-12-05T11:53:54.762Z,1024.74
2017-12-05T11:54:55.391Z,1024.69
2017-12-05T11:55:55.980Z,1024.72
2017-12-05T11:56:56.582Z,1024.68
2017-12-05T11:57:57.186Z,1024.75
2017-12-05T11:58:57.802Z,1024.71
2017-12-05T11:59:58.435Z,1024.74
2017-12-05T12:00:59.038Z,1024.76
2017-12-05T12:01:59.655Z,1024.71
2017-12-05T12:03:00.271Z,1024.72
2017-12-05T12:04:00.899Z,1024.75
2017-12-05T12:05:01.502Z,1024.75
2017-12-05T12:06:02.124Z,1024.81
2017-12-05T12:07:02.742Z,1024.76
2017-12-05T12:08:03.348Z,1024.80
2017-12-05T12:09:03.960Z,1024.77
2017-12-05T12:10:04.575Z,1024.77
2017-12-05T12:11:05.189Z,1024.77
2017-12-05T12:12:05.805Z,1024.76
2017-12-05T12:13:06.416Z,1024.75